sensor_id;sensor_type;location;lat;lon;timestamp;temperature;humidity
16827;DHT22;8530;49.540;8.576;2023-06-10T00:00:21;20.60;45.10
16827;DHT22;8530;49.540;8.576;2023-06-10T00:02:48;20.60;44.70
16827;DHT22;8530;49.540;8.576;2023-06-10T00:05:14;20.60;44.80
16827;DHT22;8530;49.540;8.576;2023-06-10T00:07:43;20.60;44.90
16827;DHT22;8530;49.540;8.576;2023-06-10T00:10:11;20.50;44.90
16827;DHT22;8530;49.540;8.576;2023-06-10T00:12:38;20.50;45.00
16827;DHT22;8530;49.540;8.576;2023-06-10T00:15:06;20.50;45.20
16827;DHT22;8530;49.540;8.576;2023-06-10T00:17:33;20.50;45.30
16827;DHT22;8530;49.540;8.576;2023-06-10T00:20:05;20.40;45.30
16827;DHT22;8530;49.540;8.576;2023-06-10T00:22:34;20.40;45.50
16827;DHT22;8530;49.540;8.576;2023-06-10T00:25:03;20.40;45.60
16827;DHT22;8530;49.540;8.576;2023-06-10T00:27:30;20.40;45.80
16827;DHT22;8530;49.540;8.576;2023-06-10T00:30:00;20.40;46.00
16827;DHT22;8530;49.540;8.576;2023-06-10T00:32:27;20.30;46.10
16827;DHT22;8530;49.540;8.576;2023-06-10T00:34:54;20.30;46.30
16827;DHT22;8530;49.540;8.576;2023-06-10T00:37:21;20.30;46.40
16827;DHT22;8530;49.540;8.576;2023-06-10T00:39:47;20.20;46.50
16827;DHT22;8530;49.540;8.576;2023-06-10T00:42:15;20.10;46.60
16827;DHT22;8530;49.540;8.576;2023-06-10T00:44:42;20.10;46.70
16827;DHT22;8530;49.540;8.576;2023-06-10T00:47:10;20.10;46.90
16827;DHT22;8530;49.540;8.576;2023-06-10T00:49:36;20.00;46.90
16827;DHT22;8530;49.540;8.576;2023-06-10T00:52:05;20.10;47.00
16827;DHT22;8530;49.540;8.576;2023-06-10T00:54:33;20.10;47.00
16827;DHT22;8530;49.540;8.576;2023-06-10T00:57:01;20.10;47.00
16827;DHT22;8530;49.540;8.576;2023-06-10T00:59:30;20.10;47.00
16827;DHT22;8530;49.540;8.576;2023-06-10T01:01:57;20.20;47.10
16827;DHT22;8530;49.540;8.576;2023-06-10T01:04:26;20.20;47.60
16827;DHT22;8530;49.540;8.576;2023-06-10T01:07:00;20.30;47.00
16827;DHT22;8530;49.540;8.576;2023-06-10T01:12:20;20.40;46.90
16827;DHT22;8530;49.540;8.576;2023-06-10T01:14:52;20.50;46.80
16827;DHT22;8530;49.540;8.576;2023-06-10T01:17:19;20.50;46.60
16827;DHT22;8530;49.540;8.576;2023-06-10T01:19:53;20.60;46.60
16827;DHT22;8530;49.540;8.576;2023-06-10T01:22:23;20.70;46.50
16827;DHT22;8530;49.540;8.576;2023-06-10T01:24:51;20.70;46.40
16827;DHT22;8530;49.540;8.576;2023-06-10T01:27:19;20.70;46.30
16827;DHT22;8530;49.540;8.576;2023-06-10T01:29:52;20.80;46.30
16827;DHT22;8530;49.540;8.576;2023-06-10T01:32:28;20.80;46.20
16827;DHT22;8530;49.540;8.576;2023-06-10T01:34:56;20.80;46.10
16827;DHT22;8530;49.540;8.576;2023-06-10T01:37:26;20.80;46.10
16827;DHT22;8530;49.540;8.576;2023-06-10T01:39:55;20.80;46.00
16827;DHT22;8530;49.540;8.576;2023-06-10T01:42:23;20.80;46.00
16827;DHT22;8530;49.540;8.576;2023-06-10T01:44:51;20.90;46.10
16827;DHT22;8530;49.540;8.576;2023-06-10T01:47:17;20.80;46.00
16827;DHT22;8530;49.540;8.576;2023-06-10T01:49:44;20.80;46.00
16827;DHT22;8530;49.540;8.576;2023-06-10T01:52:11;20.80;46.00
16827;DHT22;8530;49.540;8.576;2023-06-10T01:54:39;20.80;46.00
16827;DHT22;8530;49.540;8.576;2023-06-10T01:57:06;20.90;46.00
16827;DHT22;8530;49.540;8.576;2023-06-10T01:59:32;20.90;46.00
16827;DHT22;8530;49.540;8.576;2023-06-10T02:01:59;20.90;45.90
16827;DHT22;8530;49.540;8.576;2023-06-10T02:04:26;20.90;45.90
16827;DHT22;8530;49.540;8.576;2023-06-10T02:06:53;20.80;45.90
16827;DHT22;8530;49.540;8.576;2023-06-10T02:09:21;20.70;45.80
16827;DHT22;8530;49.540;8.576;2023-06-10T02:11:49;20.70;45.90
16827;DHT22;8530;49.540;8.576;2023-06-10T02:14:16;20.70;45.90
16827;DHT22;8530;49.540;8.576;2023-06-10T02:16:43;20.70;46.00
16827;DHT22;8530;49.540;8.576;2023-06-10T02:19:12;20.60;46.00
16827;DHT22;8530;49.540;8.576;2023-06-10T02:21:38;20.60;46.00
16827;DHT22;8530;49.540;8.576;2023-06-10T02:24:06;20.60;46.00
16827;DHT22;8530;49.540;8.576;2023-06-10T02:26:33;20.60;46.10
16827;DHT22;8530;49.540;8.576;2023-06-10T02:29:01;20.60;46.10
16827;DHT22;8530;49.540;8.576;2023-06-10T02:31:28;20.60;46.10
16827;DHT22;8530;49.540;8.576;2023-06-10T02:33:55;20.50;46.10
16827;DHT22;8530;49.540;8.576;2023-06-10T02:36:22;20.50;46.10
16827;DHT22;8530;49.540;8.576;2023-06-10T02:38:49;20.40;46.20
16827;DHT22;8530;49.540;8.576;2023-06-10T02:41:16;20.30;46.20
16827;DHT22;8530;49.540;8.576;2023-06-10T02:43:42;20.20;46.30
16827;DHT22;8530;49.540;8.576;2023-06-10T02:46:11;20.10;46.40
16827;DHT22;8530;49.540;8.576;2023-06-10T02:48:41;20.00;46.50
16827;DHT22;8530;49.540;8.576;2023-06-10T02:51:08;19.90;46.60
16827;DHT22;8530;49.540;8.576;2023-06-10T02:53:35;19.90;46.80
16827;DHT22;8530;49.540;8.576;2023-06-10T02:56:01;19.70;46.80
16827;DHT22;8530;49.540;8.576;2023-06-10T02:58:28;19.70;47.10
16827;DHT22;8530;49.540;8.576;2023-06-10T03:00:55;19.60;47.20
16827;DHT22;8530;49.540;8.576;2023-06-10T03:03:23;19.50;47.30
16827;DHT22;8530;49.540;8.576;2023-06-10T03:05:51;19.50;47.50
16827;DHT22;8530;49.540;8.576;2023-06-10T03:08:17;19.40;47.60
16827;DHT22;8530;49.540;8.576;2023-06-10T03:10:44;19.40;47.80
16827;DHT22;8530;49.540;8.576;2023-06-10T03:13:11;19.30;47.90
16827;DHT22;8530;49.540;8.576;2023-06-10T03:15:37;19.30;48.00
16827;DHT22;8530;49.540;8.576;2023-06-10T03:18:06;19.30;48.20
16827;DHT22;8530;49.540;8.576;2023-06-10T03:20:34;19.20;48.20
16827;DHT22;8530;49.540;8.576;2023-06-10T03:23:04;19.20;48.40
16827;DHT22;8530;49.540;8.576;2023-06-10T03:25:31;19.20;48.50
16827;DHT22;8530;49.540;8.576;2023-06-10T03:27:58;19.10;48.50
16827;DHT22;8530;49.540;8.576;2023-06-10T03:30:25;19.10;48.70
16827;DHT22;8530;49.540;8.576;2023-06-10T03:32:52;19.10;48.80
16827;DHT22;8530;49.540;8.576;2023-06-10T03:35:19;19.10;49.00
16827;DHT22;8530;49.540;8.576;2023-06-10T03:37:47;19.10;49.00
16827;DHT22;8530;49.540;8.576;2023-06-10T03:40:14;19.10;49.10
16827;DHT22;8530;49.540;8.576;2023-06-10T03:42:41;19.10;49.20
16827;DHT22;8530;49.540;8.576;2023-06-10T03:45:10;19.10;49.30
16827;DHT22;8530;49.540;8.576;2023-06-10T03:47:37;19.10;49.40
16827;DHT22;8530;49.540;8.576;2023-06-10T03:50:10;19.10;49.60
16827;DHT22;8530;49.540;8.576;2023-06-10T03:52:38;19.10;49.70
16827;DHT22;8530;49.540;8.576;2023-06-10T03:55:07;19.10;49.70
16827;DHT22;8530;49.540;8.576;2023-06-10T03:57:34;19.10;49.80
16827;DHT22;8530;49.540;8.576;2023-06-10T04:00:00;19.20;50.00
16827;DHT22;8530;49.540;8.576;2023-06-10T04:02:32;19.80;50.20
16827;DHT22;8530;49.540;8.576;2023-06-10T04:05:00;20.90;49.90
16827;DHT22;8530;49.540;8.576;2023-06-10T04:07:27;22.10;49.20
16827;DHT22;8530;49.540;8.576;2023-06-10T04:09:54;23.10;48.20
16827;DHT22;8530;49.540;8.576;2023-06-10T04:12:22;23.40;47.20
16827;DHT22;8530;49.540;8.576;2023-06-10T04:14:48;23.30;46.90
16827;DHT22;8530;49.540;8.576;2023-06-10T04:17:16;22.90;46.60
16827;DHT22;8530;49.540;8.576;2023-06-10T04:19:43;22.40;46.50
16827;DHT22;8530;49.540;8.576;2023-06-10T04:22:10;22.00;46.50
16827;DHT22;8530;49.540;8.576;2023-06-10T04:24:36;21.60;46.60
16827;DHT22;8530;49.540;8.576;2023-06-10T04:27:04;21.40;46.80
16827;DHT22;8530;49.540;8.576;2023-06-10T04:29:32;21.20;46.90
16827;DHT22;8530;49.540;8.576;2023-06-10T04:31:58;21.10;47.10
16827;DHT22;8530;49.540;8.576;2023-06-10T04:34:27;21.00;47.20
16827;DHT22;8530;49.540;8.576;2023-06-10T04:36:54;20.90;47.30
16827;DHT22;8530;49.540;8.576;2023-06-10T04:39:21;20.80;47.50
16827;DHT22;8530;49.540;8.576;2023-06-10T04:41:48;20.80;47.60
16827;DHT22;8530;49.540;8.576;2023-06-10T04:44:15;20.80;47.80
16827;DHT22;8530;49.540;8.576;2023-06-10T04:46:43;20.70;47.80
16827;DHT22;8530;49.540;8.576;2023-06-10T04:49:09;20.70;48.00
16827;DHT22;8530;49.540;8.576;2023-06-10T04:51:36;20.70;48.10
16827;DHT22;8530;49.540;8.576;2023-06-10T04:54:03;20.70;48.20
16827;DHT22;8530;49.540;8.576;2023-06-10T04:56:31;20.70;48.40
16827;DHT22;8530;49.540;8.576;2023-06-10T04:58:57;20.60;48.40
16827;DHT22;8530;49.540;8.576;2023-06-10T05:01:24;20.60;48.60
16827;DHT22;8530;49.540;8.576;2023-06-10T05:03:52;20.60;48.70
16827;DHT22;8530;49.540;8.576;2023-06-10T05:06:19;20.60;48.90
16827;DHT22;8530;49.540;8.576;2023-06-10T05:08:45;20.60;49.00
16827;DHT22;8530;49.540;8.576;2023-06-10T05:11:12;20.70;49.20
16827;DHT22;8530;49.540;8.576;2023-06-10T05:13:41;20.80;49.40
16827;DHT22;8530;49.540;8.576;2023-06-10T05:16:08;20.80;49.50
16827;DHT22;8530;49.540;8.576;2023-06-10T05:18:35;21.00;49.70
16827;DHT22;8530;49.540;8.576;2023-06-10T05:21:03;21.10;49.70
16827;DHT22;8530;49.540;8.576;2023-06-10T05:23:30;21.30;49.80
16827;DHT22;8530;49.540;8.576;2023-06-10T05:25:57;21.40;49.80
16827;DHT22;8530;49.540;8.576;2023-06-10T05:28:25;21.60;49.80
16827;DHT22;8530;49.540;8.576;2023-06-10T05:30:51;21.80;49.90
16827;DHT22;8530;49.540;8.576;2023-06-10T05:33:18;22.00;49.80
16827;DHT22;8530;49.540;8.576;2023-06-10T05:35:44;22.30;50.00
16827;DHT22;8530;49.540;8.576;2023-06-10T05:38:12;22.70;50.30
16827;DHT22;8530;49.540;8.576;2023-06-10T05:40:39;23.70;51.20
16827;DHT22;8530;49.540;8.576;2023-06-10T05:43:06;26.30;50.60
16827;DHT22;8530;49.540;8.576;2023-06-10T05:45:34;29.20;47.70
16827;DHT22;8530;49.540;8.576;2023-06-10T05:48:02;31.70;44.30
16827;DHT22;8530;49.540;8.576;2023-06-10T05:50:28;33.80;40.80
16827;DHT22;8530;49.540;8.576;2023-06-10T05:52:55;35.50;37.50
16827;DHT22;8530;49.540;8.576;2023-06-10T05:55:24;37.10;34.00
16827;DHT22;8530;49.540;8.576;2023-06-10T05:57:58;38.60;30.60
16827;DHT22;8530;49.540;8.576;2023-06-10T06:00:25;40.00;28.00
16827;DHT22;8530;49.540;8.576;2023-06-10T06:02:51;41.20;26.70
16827;DHT22;8530;49.540;8.576;2023-06-10T06:05:19;42.40;25.00
16827;DHT22;8530;49.540;8.576;2023-06-10T06:07:46;43.30;23.30
16827;DHT22;8530;49.540;8.576;2023-06-10T06:10:13;43.80;22.40
16827;DHT22;8530;49.540;8.576;2023-06-10T06:12:41;44.60;21.20
16827;DHT22;8530;49.540;8.576;2023-06-10T06:15:09;45.50;19.90
16827;DHT22;8530;49.540;8.576;2023-06-10T06:17:36;46.30;19.00
16827;DHT22;8530;49.540;8.576;2023-06-10T06:20:03;46.90;18.40
16827;DHT22;8530;49.540;8.576;2023-06-10T06:22:30;47.40;17.40
16827;DHT22;8530;49.540;8.576;2023-06-10T06:24:56;47.50;17.10
16827;DHT22;8530;49.540;8.576;2023-06-10T06:27:23;48.20;16.50
16827;DHT22;8530;49.540;8.576;2023-06-10T06:29:51;48.70;15.80
16827;DHT22;8530;49.540;8.576;2023-06-10T06:32:18;49.10;15.20
16827;DHT22;8530;49.540;8.576;2023-06-10T06:34:45;49.20;15.00
16827;DHT22;8530;49.540;8.576;2023-06-10T06:37:11;49.80;14.60
16827;DHT22;8530;49.540;8.576;2023-06-10T06:39:38;50.50;14.10
16827;DHT22;8530;49.540;8.576;2023-06-10T06:42:05;51.00;13.70
16827;DHT22;8530;49.540;8.576;2023-06-10T06:44:32;51.40;13.10
16827;DHT22;8530;49.540;8.576;2023-06-10T06:47:00;51.40;12.70
16827;DHT22;8530;49.540;8.576;2023-06-10T06:49:26;51.50;12.50
16827;DHT22;8530;49.540;8.576;2023-06-10T06:51:53;51.80;12.20
16827;DHT22;8530;49.540;8.576;2023-06-10T06:54:20;52.10;11.90
16827;DHT22;8530;49.540;8.576;2023-06-10T06:56:46;52.10;11.90
16827;DHT22;8530;49.540;8.576;2023-06-10T06:59:13;52.30;11.80
16827;DHT22;8530;49.540;8.576;2023-06-10T07:01:40;52.70;11.40
16827;DHT22;8530;49.540;8.576;2023-06-10T07:04:08;52.40;11.40
16827;DHT22;8530;49.540;8.576;2023-06-10T07:06:35;52.60;11.20
16827;DHT22;8530;49.540;8.576;2023-06-10T07:09:03;53.20;11.00
16827;DHT22;8530;49.540;8.576;2023-06-10T07:11:30;53.70;10.80
16827;DHT22;8530;49.540;8.576;2023-06-10T07:13:57;53.80;10.70
16827;DHT22;8530;49.540;8.576;2023-06-10T07:16:24;53.80;10.50
16827;DHT22;8530;49.540;8.576;2023-06-10T07:18:51;53.50;10.60
16827;DHT22;8530;49.540;8.576;2023-06-10T07:21:20;53.20;10.70
16827;DHT22;8530;49.540;8.576;2023-06-10T07:23:48;53.70;10.40
16827;DHT22;8530;49.540;8.576;2023-06-10T07:26:14;54.20;10.40
16827;DHT22;8530;49.540;8.576;2023-06-10T07:28:42;54.70;10.10
16827;DHT22;8530;49.540;8.576;2023-06-10T07:31:08;55.20;9.90
16827;DHT22;8530;49.540;8.576;2023-06-10T07:33:36;55.40;9.80
16827;DHT22;8530;49.540;8.576;2023-06-10T07:36:04;54.70;9.60
16827;DHT22;8530;49.540;8.576;2023-06-10T07:38:32;54.30;9.70
16827;DHT22;8530;49.540;8.576;2023-06-10T07:40:59;54.40;9.50
16827;DHT22;8530;49.540;8.576;2023-06-10T07:43:26;54.20;9.70
16827;DHT22;8530;49.540;8.576;2023-06-10T07:45:53;54.10;9.50
16827;DHT22;8530;49.540;8.576;2023-06-10T07:48:19;54.40;9.40
16827;DHT22;8530;49.540;8.576;2023-06-10T07:50:46;54.70;9.20
16827;DHT22;8530;49.540;8.576;2023-06-10T07:53:13;54.70;9.00
16827;DHT22;8530;49.540;8.576;2023-06-10T07:55:41;54.60;8.80
16827;DHT22;8530;49.540;8.576;2023-06-10T07:58:07;53.90;9.00
16827;DHT22;8530;49.540;8.576;2023-06-10T08:00:34;53.00;9.20
16827;DHT22;8530;49.540;8.576;2023-06-10T08:03:01;52.20;9.30
16827;DHT22;8530;49.540;8.576;2023-06-10T08:05:27;51.80;9.30
16827;DHT22;8530;49.540;8.576;2023-06-10T08:07:55;51.90;9.70
16827;DHT22;8530;49.540;8.576;2023-06-10T08:10:22;51.50;9.20
16827;DHT22;8530;49.540;8.576;2023-06-10T08:12:50;50.80;9.40
16827;DHT22;8530;49.540;8.576;2023-06-10T08:15:16;49.50;9.60
16827;DHT22;8530;49.540;8.576;2023-06-10T08:17:43;47.80;9.80
16827;DHT22;8530;49.540;8.576;2023-06-10T08:20:10;46.10;10.20
16827;DHT22;8530;49.540;8.576;2023-06-10T08:22:38;44.40;10.80
16827;DHT22;8530;49.540;8.576;2023-06-10T08:25:05;42.60;11.70
16827;DHT22;8530;49.540;8.576;2023-06-10T08:27:32;41.10;12.30
16827;DHT22;8530;49.540;8.576;2023-06-10T08:30:01;39.80;12.90
16827;DHT22;8530;49.540;8.576;2023-06-10T08:32:28;38.60;13.70
16827;DHT22;8530;49.540;8.576;2023-06-10T08:34:54;37.50;14.50
16827;DHT22;8530;49.540;8.576;2023-06-10T08:37:22;36.40;15.40
16827;DHT22;8530;49.540;8.576;2023-06-10T08:39:48;35.60;16.20
16827;DHT22;8530;49.540;8.576;2023-06-10T08:42:22;35.00;16.90
16827;DHT22;8530;49.540;8.576;2023-06-10T08:44:53;34.50;17.80
16827;DHT22;8530;49.540;8.576;2023-06-10T08:47:22;34.00;18.30
16827;DHT22;8530;49.540;8.576;2023-06-10T08:49:49;33.60;19.00
16827;DHT22;8530;49.540;8.576;2023-06-10T08:52:19;33.20;19.40
16827;DHT22;8530;49.540;8.576;2023-06-10T08:54:49;32.90;20.00
16827;DHT22;8530;49.540;8.576;2023-06-10T08:57:18;32.70;20.50
16827;DHT22;8530;49.540;8.576;2023-06-10T08:59:47;32.60;20.90
16827;DHT22;8530;49.540;8.576;2023-06-10T09:02:15;32.40;21.40
16827;DHT22;8530;49.540;8.576;2023-06-10T09:04:47;32.30;21.60
16827;DHT22;8530;49.540;8.576;2023-06-10T09:07:14;32.40;22.00
16827;DHT22;8530;49.540;8.576;2023-06-10T09:09:42;32.60;22.30
16827;DHT22;8530;49.540;8.576;2023-06-10T09:12:10;32.70;22.50
16827;DHT22;8530;49.540;8.576;2023-06-10T09:14:37;32.60;22.80
16827;DHT22;8530;49.540;8.576;2023-06-10T09:17:05;32.30;23.00
16827;DHT22;8530;49.540;8.576;2023-06-10T09:19:32;32.30;23.10
16827;DHT22;8530;49.540;8.576;2023-06-10T09:22:00;32.30;23.40
16827;DHT22;8530;49.540;8.576;2023-06-10T09:24:27;32.30;23.60
16827;DHT22;8530;49.540;8.576;2023-06-10T09:27:02;32.20;23.70
16827;DHT22;8530;49.540;8.576;2023-06-10T09:29:30;32.10;23.90
16827;DHT22;8530;49.540;8.576;2023-06-10T09:31:57;32.00;24.00
16827;DHT22;8530;49.540;8.576;2023-06-10T09:34:25;31.90;24.10
16827;DHT22;8530;49.540;8.576;2023-06-10T09:36:53;31.90;24.00
16827;DHT22;8530;49.540;8.576;2023-06-10T09:39:22;31.90;23.90
16827;DHT22;8530;49.540;8.576;2023-06-10T09:41:49;31.90;23.80
16827;DHT22;8530;49.540;8.576;2023-06-10T09:44:17;31.80;23.80
16827;DHT22;8530;49.540;8.576;2023-06-10T09:46:45;31.80;23.90
16827;DHT22;8530;49.540;8.576;2023-06-10T09:49:12;31.90;23.90
16827;DHT22;8530;49.540;8.576;2023-06-10T09:51:49;31.90;23.90
16827;DHT22;8530;49.540;8.576;2023-06-10T09:54:16;31.90;23.80
16827;DHT22;8530;49.540;8.576;2023-06-10T09:56:46;31.90;23.70
16827;DHT22;8530;49.540;8.576;2023-06-10T09:59:14;31.70;23.60
16827;DHT22;8530;49.540;8.576;2023-06-10T10:01:41;31.60;23.70
16827;DHT22;8530;49.540;8.576;2023-06-10T10:04:08;31.50;23.70
16827;DHT22;8530;49.540;8.576;2023-06-10T10:06:35;31.40;23.80
16827;DHT22;8530;49.540;8.576;2023-06-10T10:09:03;31.20;23.90
16827;DHT22;8530;49.540;8.576;2023-06-10T10:11:32;31.20;24.00
16827;DHT22;8530;49.540;8.576;2023-06-10T10:14:04;31.30;24.10
16827;DHT22;8530;49.540;8.576;2023-06-10T10:16:36;31.30;24.10
16827;DHT22;8530;49.540;8.576;2023-06-10T10:19:07;31.40;24.10
16827;DHT22;8530;49.540;8.576;2023-06-10T10:21:38;31.50;24.10
16827;DHT22;8530;49.540;8.576;2023-06-10T10:24:12;31.50;24.10
16827;DHT22;8530;49.540;8.576;2023-06-10T10:26:42;31.60;24.10
16827;DHT22;8530;49.540;8.576;2023-06-10T10:29:14;31.60;24.10
16827;DHT22;8530;49.540;8.576;2023-06-10T10:31:42;31.60;24.00
16827;DHT22;8530;49.540;8.576;2023-06-10T10:34:13;31.60;24.00
16827;DHT22;8530;49.540;8.576;2023-06-10T10:36:42;31.60;24.00
16827;DHT22;8530;49.540;8.576;2023-06-10T10:39:09;31.60;24.00
16827;DHT22;8530;49.540;8.576;2023-06-10T10:41:37;31.70;24.00
16827;DHT22;8530;49.540;8.576;2023-06-10T10:44:05;31.80;24.00
16827;DHT22;8530;49.540;8.576;2023-06-10T10:46:42;31.90;23.90
16827;DHT22;8530;49.540;8.576;2023-06-10T10:49:09;32.00;23.70
16827;DHT22;8530;49.540;8.576;2023-06-10T10:51:36;32.10;23.50
16827;DHT22;8530;49.540;8.576;2023-06-10T10:54:27;32.20;23.30
16827;DHT22;8530;49.540;8.576;2023-06-10T10:57:13;32.10;23.10
16827;DHT22;8530;49.540;8.576;2023-06-10T11:02:36;31.80;23.30
16827;DHT22;8530;49.540;8.576;2023-06-10T11:05:06;32.00;23.40
16827;DHT22;8530;49.540;8.576;2023-06-10T11:07:34;32.10;23.30
16827;DHT22;8530;49.540;8.576;2023-06-10T11:10:04;32.20;23.20
16827;DHT22;8530;49.540;8.576;2023-06-10T11:12:42;32.30;22.90
16827;DHT22;8530;49.540;8.576;2023-06-10T11:15:18;32.30;22.80
16827;DHT22;8530;49.540;8.576;2023-06-10T11:18:07;32.30;22.70
16827;DHT22;8530;49.540;8.576;2023-06-10T11:20:54;32.40;22.80
16827;DHT22;8530;49.540;8.576;2023-06-10T11:23:26;32.60;22.70
16827;DHT22;8530;49.540;8.576;2023-06-10T11:26:13;32.70;22.70
16827;DHT22;8530;49.540;8.576;2023-06-10T11:28:40;32.70;22.50
16827;DHT22;8530;49.540;8.576;2023-06-10T11:31:09;32.60;22.50
16827;DHT22;8530;49.540;8.576;2023-06-10T11:33:47;32.60;22.50
16827;DHT22;8530;49.540;8.576;2023-06-10T11:36:14;32.70;22.50
16827;DHT22;8530;49.540;8.576;2023-06-10T11:38:41;32.60;22.50
16827;DHT22;8530;49.540;8.576;2023-06-10T11:41:07;32.70;22.50
16827;DHT22;8530;49.540;8.576;2023-06-10T11:43:34;32.70;22.40
16827;DHT22;8530;49.540;8.576;2023-06-10T11:46:01;32.70;22.50
16827;DHT22;8530;49.540;8.576;2023-06-10T11:48:28;32.80;22.50
16827;DHT22;8530;49.540;8.576;2023-06-10T11:50:57;32.90;22.50
16827;DHT22;8530;49.540;8.576;2023-06-10T11:53:24;33.00;22.50
16827;DHT22;8530;49.540;8.576;2023-06-10T11:55:51;33.10;22.50
16827;DHT22;8530;49.540;8.576;2023-06-10T11:58:19;33.20;22.50
16827;DHT22;8530;49.540;8.576;2023-06-10T12:00:47;33.00;22.40
16827;DHT22;8530;49.540;8.576;2023-06-10T12:03:14;32.90;22.50
16827;DHT22;8530;49.540;8.576;2023-06-10T12:05:58;32.80;22.90
16827;DHT22;8530;49.540;8.576;2023-06-10T12:08:26;32.80;22.40
16827;DHT22;8530;49.540;8.576;2023-06-10T12:10:53;32.80;22.40
16827;DHT22;8530;49.540;8.576;2023-06-10T12:13:20;32.70;22.40
16827;DHT22;8530;49.540;8.576;2023-06-10T12:15:48;32.40;22.50
16827;DHT22;8530;49.540;8.576;2023-06-10T12:18:18;32.30;22.60
16827;DHT22;8530;49.540;8.576;2023-06-10T12:20:46;32.40;22.80
16827;DHT22;8530;49.540;8.576;2023-06-10T12:23:16;32.60;22.80
16827;DHT22;8530;49.540;8.576;2023-06-10T12:25:50;32.80;22.80
16827;DHT22;8530;49.540;8.576;2023-06-10T12:28:21;33.00;22.60
16827;DHT22;8530;49.540;8.576;2023-06-10T12:30:48;33.20;22.40
16827;DHT22;8530;49.540;8.576;2023-06-10T12:33:17;33.40;22.30
16827;DHT22;8530;49.540;8.576;2023-06-10T12:35:48;33.60;22.00
16827;DHT22;8530;49.540;8.576;2023-06-10T12:38:21;33.60;21.80
16827;DHT22;8530;49.540;8.576;2023-06-10T12:40:48;33.30;21.80
16827;DHT22;8530;49.540;8.576;2023-06-10T12:43:19;33.10;21.90
16827;DHT22;8530;49.540;8.576;2023-06-10T12:45:46;32.80;22.00
16827;DHT22;8530;49.540;8.576;2023-06-10T12:48:18;32.50;22.10
16827;DHT22;8530;49.540;8.576;2023-06-10T12:50:51;32.30;22.10
16827;DHT22;8530;49.540;8.576;2023-06-10T12:53:20;32.50;22.30
16827;DHT22;8530;49.540;8.576;2023-06-10T12:55:48;32.70;22.30
16827;DHT22;8530;49.540;8.576;2023-06-10T12:58:15;32.80;22.30
16827;DHT22;8530;49.540;8.576;2023-06-10T13:00:42;32.80;22.30
16827;DHT22;8530;49.540;8.576;2023-06-10T13:03:10;33.00;22.30
16827;DHT22;8530;49.540;8.576;2023-06-10T13:05:37;33.10;22.10
16827;DHT22;8530;49.540;8.576;2023-06-10T13:08:04;33.30;22.10
16827;DHT22;8530;49.540;8.576;2023-06-10T13:10:33;33.20;21.90
16827;DHT22;8530;49.540;8.576;2023-06-10T13:13:01;33.10;21.80
16827;DHT22;8530;49.540;8.576;2023-06-10T13:15:28;33.20;21.70
16827;DHT22;8530;49.540;8.576;2023-06-10T13:17:54;33.10;21.70
16827;DHT22;8530;49.540;8.576;2023-06-10T13:20:21;33.10;21.80
16827;DHT22;8530;49.540;8.576;2023-06-10T13:22:48;33.20;21.90
16827;DHT22;8530;49.540;8.576;2023-06-10T13:25:15;33.30;21.90
16827;DHT22;8530;49.540;8.576;2023-06-10T13:27:43;33.50;21.80
16827;DHT22;8530;49.540;8.576;2023-06-10T13:30:11;33.70;21.60
16827;DHT22;8530;49.540;8.576;2023-06-10T13:32:38;33.80;21.60
16827;DHT22;8530;49.540;8.576;2023-06-10T13:35:05;33.90;21.60
16827;DHT22;8530;49.540;8.576;2023-06-10T13:37:32;33.80;21.60
16827;DHT22;8530;49.540;8.576;2023-06-10T13:40:00;33.50;21.60
16827;DHT22;8530;49.540;8.576;2023-06-10T13:42:27;33.40;21.60
16827;DHT22;8530;49.540;8.576;2023-06-10T13:44:55;33.30;21.50
16827;DHT22;8530;49.540;8.576;2023-06-10T13:47:23;33.40;21.20
16827;DHT22;8530;49.540;8.576;2023-06-10T13:49:49;33.40;21.00
16827;DHT22;8530;49.540;8.576;2023-06-10T13:52:16;33.50;20.90
16827;DHT22;8530;49.540;8.576;2023-06-10T13:54:43;33.50;20.80
16827;DHT22;8530;49.540;8.576;2023-06-10T13:57:10;33.60;20.80
16827;DHT22;8530;49.540;8.576;2023-06-10T13:59:37;33.60;20.80
16827;DHT22;8530;49.540;8.576;2023-06-10T14:02:05;33.70;21.00
16827;DHT22;8530;49.540;8.576;2023-06-10T14:04:31;33.80;21.00
16827;DHT22;8530;49.540;8.576;2023-06-10T14:06:58;33.90;21.00
16827;DHT22;8530;49.540;8.576;2023-06-10T14:09:26;34.10;20.90
16827;DHT22;8530;49.540;8.576;2023-06-10T14:11:53;34.10;20.80
16827;DHT22;8530;49.540;8.576;2023-06-10T14:14:19;34.20;20.80
16827;DHT22;8530;49.540;8.576;2023-06-10T14:16:47;34.10;20.60
16827;DHT22;8530;49.540;8.576;2023-06-10T14:19:15;33.90;20.60
16827;DHT22;8530;49.540;8.576;2023-06-10T14:21:42;33.90;20.50
16827;DHT22;8530;49.540;8.576;2023-06-10T14:24:09;33.90;20.50
16827;DHT22;8530;49.540;8.576;2023-06-10T14:26:35;33.90;20.50
16827;DHT22;8530;49.540;8.576;2023-06-10T14:29:02;33.80;20.40
16827;DHT22;8530;49.540;8.576;2023-06-10T14:31:29;33.80;20.50
16827;DHT22;8530;49.540;8.576;2023-06-10T14:33:56;33.90;20.40
16827;DHT22;8530;49.540;8.576;2023-06-10T14:36:24;34.10;20.40
16827;DHT22;8530;49.540;8.576;2023-06-10T14:38:51;34.10;20.40
16827;DHT22;8530;49.540;8.576;2023-06-10T14:41:17;34.30;20.80
16827;DHT22;8530;49.540;8.576;2023-06-10T14:43:44;34.40;20.40
16827;DHT22;8530;49.540;8.576;2023-06-10T14:46:11;34.40;20.30
16827;DHT22;8530;49.540;8.576;2023-06-10T14:48:37;34.40;20.40
16827;DHT22;8530;49.540;8.576;2023-06-10T14:51:04;34.10;20.30
16827;DHT22;8530;49.540;8.576;2023-06-10T14:53:32;33.80;20.40
16827;DHT22;8530;49.540;8.576;2023-06-10T14:55:58;33.60;20.60
16827;DHT22;8530;49.540;8.576;2023-06-10T14:58:25;33.40;20.70
16827;DHT22;8530;49.540;8.576;2023-06-10T15:00:52;33.40;20.70
16827;DHT22;8530;49.540;8.576;2023-06-10T15:03:18;33.50;20.80
16827;DHT22;8530;49.540;8.576;2023-06-10T15:05:45;33.40;20.90
16827;DHT22;8530;49.540;8.576;2023-06-10T15:08:12;33.30;21.00
16827;DHT22;8530;49.540;8.576;2023-06-10T15:10:40;33.10;21.00
16827;DHT22;8530;49.540;8.576;2023-06-10T15:13:07;33.10;21.10
16827;DHT22;8530;49.540;8.576;2023-06-10T15:15:34;33.10;21.00
16827;DHT22;8530;49.540;8.576;2023-06-10T15:18:00;33.20;21.00
16827;DHT22;8530;49.540;8.576;2023-06-10T15:20:27;33.30;21.10
16827;DHT22;8530;49.540;8.576;2023-06-10T15:22:54;33.30;21.00
16827;DHT22;8530;49.540;8.576;2023-06-10T15:25:21;33.40;21.10
16827;DHT22;8530;49.540;8.576;2023-06-10T15:27:49;33.50;21.10
16827;DHT22;8530;49.540;8.576;2023-06-10T15:30:15;33.70;21.10
16827;DHT22;8530;49.540;8.576;2023-06-10T15:32:42;33.80;21.00
16827;DHT22;8530;49.540;8.576;2023-06-10T15:35:09;33.90;21.00
16827;DHT22;8530;49.540;8.576;2023-06-10T15:37:35;33.90;21.00
16827;DHT22;8530;49.540;8.576;2023-06-10T15:40:02;33.80;20.90
16827;DHT22;8530;49.540;8.576;2023-06-10T15:42:29;33.60;20.80
16827;DHT22;8530;49.540;8.576;2023-06-10T15:44:58;33.40;20.90
16827;DHT22;8530;49.540;8.576;2023-06-10T15:47:25;33.30;21.00
16827;DHT22;8530;49.540;8.576;2023-06-10T15:49:51;33.30;21.10
16827;DHT22;8530;49.540;8.576;2023-06-10T15:52:18;33.10;21.20
16827;DHT22;8530;49.540;8.576;2023-06-10T15:54:45;33.00;21.40
16827;DHT22;8530;49.540;8.576;2023-06-10T15:57:11;32.90;21.40